sensor_id;sensor_type;location;lat;lon;timestamp;pressure;altitude;pressure_sealevel;temperature;humidity
58239;BME280;44037;55.638;37.356;2024-03-06T00:02:07;100117.25;;;-5.92;64.63
58239;BME280;44037;55.638;37.356;2024-03-06T00:04:37;100114.06;;;-5.99;64.95
58239;BME280;44037;55.638;37.356;2024-03-06T00:07:04;100116.84;;;-6.03;65.12
58239;BME280;44037;55.638;37.356;2024-03-06T00:09:32;100117.22;;;-6.13;65.23
58239;BME280;44037;55.638;37.356;2024-03-06T00:11:59;100105.66;;;-6.27;65.39
58239;BME280;44037;55.638;37.356;2024-03-06T00:14:27;100108.25;;;-6.27;65.79
58239;BME280;44037;55.638;37.356;2024-03-06T00:16:54;100105.44;;;-6.23;65.69
58239;BME280;44037;55.638;37.356;2024-03-06T00:19:22;100111.66;;;-6.25;65.82
58239;BME280;44037;55.638;37.356;2024-03-06T00:21:51;100107.59;;;-6.33;66.22
58239;BME280;44037;55.638;37.356;2024-03-06T00:24:18;100115.91;;;-6.45;66.36
58239;BME280;44037;55.638;37.356;2024-03-06T00:26:45;100121.31;;;-6.50;66.75
58239;BME280;44037;55.638;37.356;2024-03-06T00:29:13;100118.00;;;-6.53;66.76
58239;BME280;44037;55.638;37.356;2024-03-06T00:31:42;100112.09;;;-6.58;67.15
58239;BME280;44037;55.638;37.356;2024-03-06T00:34:10;100119.50;;;-6.70;67.61
58239;BME280;44037;55.638;37.356;2024-03-06T00:36:39;100125.00;;;-6.77;67.81
58239;BME280;44037;55.638;37.356;2024-03-06T00:39:08;100121.66;;;-6.81;67.86
58239;BME280;44037;55.638;37.356;2024-03-06T00:41:36;100110.88;;;-6.96;67.96
58239;BME280;44037;55.638;37.356;2024-03-06T00:44:03;100118.50;;;-6.89;67.90
58239;BME280;44037;55.638;37.356;2024-03-06T00:46:31;100121.56;;;-7.02;68.19
58239;BME280;44037;55.638;37.356;2024-03-06T00:48:59;100129.50;;;-7.05;68.47
58239;BME280;44037;55.638;37.356;2024-03-06T00:51:26;100131.38;;;-7.08;68.33
58239;BME280;44037;55.638;37.356;2024-03-06T00:53:53;100127.47;;;-7.20;68.43
58239;BME280;44037;55.638;37.356;2024-03-06T00:56:22;100125.19;;;-7.30;68.96
58239;BME280;44037;55.638;37.356;2024-03-06T00:58:49;100124.94;;;-7.23;68.72
58239;BME280;44037;55.638;37.356;2024-03-06T01:01:16;100121.66;;;-7.29;68.69
58239;BME280;44037;55.638;37.356;2024-03-06T01:03:44;100124.38;;;-7.32;68.79
58239;BME280;44037;55.638;37.356;2024-03-06T01:06:12;100105.41;;;-7.37;68.71
58239;BME280;44037;55.638;37.356;2024-03-06T01:08:39;100114.78;;;-7.31;68.81
58239;BME280;44037;55.638;37.356;2024-03-06T01:11:07;100106.94;;;-7.31;68.76
58239;BME280;44037;55.638;37.356;2024-03-06T01:13:35;100110.63;;;-7.37;68.58
58239;BME280;44037;55.638;37.356;2024-03-06T01:16:03;100103.94;;;-7.44;68.62
58239;BME280;44037;55.638;37.356;2024-03-06T01:18:31;100112.63;;;-7.43;68.84
58239;BME280;44037;55.638;37.356;2024-03-06T01:20:58;100104.78;;;-7.43;68.45
58239;BME280;44037;55.638;37.356;2024-03-06T01:23:25;100110.53;;;-7.34;68.57
58239;BME280;44037;55.638;37.356;2024-03-06T01:25:53;100123.56;;;-7.34;68.56
58239;BME280;44037;55.638;37.356;2024-03-06T01:28:20;100111.47;;;-7.36;68.42
58239;BME280;44037;55.638;37.356;2024-03-06T01:30:49;100109.06;;;-7.41;68.13
58239;BME280;44037;55.638;37.356;2024-03-06T01:33:16;100111.75;;;-7.44;68.04
58239;BME280;44037;55.638;37.356;2024-03-06T01:35:44;100111.34;;;-7.55;68.49
58239;BME280;44037;55.638;37.356;2024-03-06T01:38:11;100115.69;;;-7.56;68.58
58239;BME280;44037;55.638;37.356;2024-03-06T01:40:43;100109.41;;;-7.50;68.37
58239;BME280;44037;55.638;37.356;2024-03-06T01:43:19;100116.00;;;-7.41;68.18
58239;BME280;44037;55.638;37.356;2024-03-06T01:45:49;100116.13;;;-7.45;68.00
58239;BME280;44037;55.638;37.356;2024-03-06T01:48:20;100114.22;;;-7.39;68.34
58239;BME280;44037;55.638;37.356;2024-03-06T01:50:48;100119.28;;;-7.35;68.09
58239;BME280;44037;55.638;37.356;2024-03-06T01:53:16;100115.97;;;-7.40;68.23
58239;BME280;44037;55.638;37.356;2024-03-06T01:55:45;100113.81;;;-7.52;68.13
58239;BME280;44037;55.638;37.356;2024-03-06T01:58:12;100126.13;;;-7.56;68.29
58239;BME280;44037;55.638;37.356;2024-03-06T02:00:40;100118.56;;;-7.64;68.43
58239;BME280;44037;55.638;37.356;2024-03-06T02:03:09;100125.59;;;-7.66;68.46
58239;BME280;44037;55.638;37.356;2024-03-06T02:05:37;100124.09;;;-7.73;68.67
58239;BME280;44037;55.638;37.356;2024-03-06T02:08:04;100128.41;;;-7.72;68.81
58239;BME280;44037;55.638;37.356;2024-03-06T02:10:33;100132.81;;;-7.74;68.71
58239;BME280;44037;55.638;37.356;2024-03-06T02:13:02;100126.72;;;-7.73;68.83
58239;BME280;44037;55.638;37.356;2024-03-06T02:15:29;100131.97;;;-7.74;68.54
58239;BME280;44037;55.638;37.356;2024-03-06T02:17:57;100125.91;;;-7.75;68.57
58239;BME280;44037;55.638;37.356;2024-03-06T02:20:26;100130.47;;;-7.82;68.58
58239;BME280;44037;55.638;37.356;2024-03-06T02:22:53;100131.28;;;-7.80;68.52
58239;BME280;44037;55.638;37.356;2024-03-06T02:25:21;100134.91;;;-7.84;68.51
58239;BME280;44037;55.638;37.356;2024-03-06T02:27:48;100130.66;;;-7.86;68.37
58239;BME280;44037;55.638;37.356;2024-03-06T02:30:19;100133.13;;;-7.83;68.15
58239;BME280;44037;55.638;37.356;2024-03-06T02:32:47;100130.72;;;-7.89;68.10
58239;BME280;44037;55.638;37.356;2024-03-06T02:35:14;100135.00;;;-7.87;67.95
58239;BME280;44037;55.638;37.356;2024-03-06T02:37:44;100123.09;;;-7.96;68.00
58239;BME280;44037;55.638;37.356;2024-03-06T02:40:11;100128.38;;;-7.97;67.87
58239;BME280;44037;55.638;37.356;2024-03-06T02:42:38;100127.59;;;-7.99;68.02
58239;BME280;44037;55.638;37.356;2024-03-06T02:45:06;100133.41;;;-7.91;68.14
58239;BME280;44037;55.638;37.356;2024-03-06T02:47:34;100135.16;;;-7.91;67.77
58239;BME280;44037;55.638;37.356;2024-03-06T02:50:02;100130.84;;;-7.92;67.71
58239;BME280;44037;55.638;37.356;2024-03-06T02:52:30;100129.84;;;-7.88;67.50
58239;BME280;44037;55.638;37.356;2024-03-06T02:54:58;100145.47;;;-7.88;67.45
58239;BME280;44037;55.638;37.356;2024-03-06T02:57:26;100147.53;;;-7.98;67.56
58239;BME280;44037;55.638;37.356;2024-03-06T02:59:55;100148.72;;;-8.08;67.52
58239;BME280;44037;55.638;37.356;2024-03-06T03:02:22;100154.44;;;-8.24;67.51
58239;BME280;44037;55.638;37.356;2024-03-06T03:04:50;100154.78;;;-8.35;68.04
58239;BME280;44037;55.638;37.356;2024-03-06T03:07:18;100152.53;;;-8.47;68.34
58239;BME280;44037;55.638;37.356;2024-03-06T03:09:46;100166.38;;;-8.45;68.74
58239;BME280;44037;55.638;37.356;2024-03-06T03:12:15;100162.19;;;-8.49;69.05
58239;BME280;44037;55.638;37.356;2024-03-06T03:14:42;100160.66;;;-8.56;68.68
58239;BME280;44037;55.638;37.356;2024-03-06T03:17:10;100158.16;;;-8.59;69.07
58239;BME280;44037;55.638;37.356;2024-03-06T03:19:38;100165.44;;;-8.42;68.84
58239;BME280;44037;55.638;37.356;2024-03-06T03:22:06;100166.38;;;-8.45;68.80
58239;BME280;44037;55.638;37.356;2024-03-06T03:24:35;100174.66;;;-8.61;68.84
58239;BME280;44037;55.638;37.356;2024-03-06T03:27:03;100170.88;;;-8.50;68.99
58239;BME280;44037;55.638;37.356;2024-03-06T03:29:31;100181.53;;;-8.58;69.32
58239;BME280;44037;55.638;37.356;2024-03-06T03:31:59;100170.72;;;-8.74;69.53
58239;BME280;44037;55.638;37.356;2024-03-06T03:34:26;100182.88;;;-8.74;69.89
58239;BME280;44037;55.638;37.356;2024-03-06T03:36:53;100184.81;;;-8.81;70.20
58239;BME280;44037;55.638;37.356;2024-03-06T03:39:21;100183.09;;;-8.82;70.08
58239;BME280;44037;55.638;37.356;2024-03-06T03:41:50;100185.19;;;-8.95;70.44
58239;BME280;44037;55.638;37.356;2024-03-06T03:44:18;100191.31;;;-8.96;70.47
58239;BME280;44037;55.638;37.356;2024-03-06T03:46:47;100188.00;;;-9.01;70.52
58239;BME280;44037;55.638;37.356;2024-03-06T03:49:14;100184.66;;;-9.06;70.90
58239;BME280;44037;55.638;37.356;2024-03-06T03:51:42;100187.28;;;-9.08;70.84
58239;BME280;44037;55.638;37.356;2024-03-06T03:54:09;100190.88;;;-9.12;71.27
58239;BME280;44037;55.638;37.356;2024-03-06T03:56:36;100178.69;;;-9.10;71.05
58239;BME280;44037;55.638;37.356;2024-03-06T03:59:04;100184.88;;;-9.14;70.98
58239;BME280;44037;55.638;37.356;2024-03-06T04:01:31;100180.41;;;-9.09;71.11
58239;BME280;44037;55.638;37.356;2024-03-06T04:04:00;100183.97;;;-9.13;71.07
58239;BME280;44037;55.638;37.356;2024-03-06T04:06:27;100180.63;;;-9.18;71.19
58239;BME280;44037;55.638;37.356;2024-03-06T04:08:55;100185.78;;;-9.15;71.25
58239;BME280;44037;55.638;37.356;2024-03-06T04:11:22;100184.84;;;-9.13;71.11
58239;BME280;44037;55.638;37.356;2024-03-06T04:13:49;100186.34;;;-9.04;70.92
58239;BME280;44037;55.638;37.356;2024-03-06T04:16:17;100187.50;;;-9.16;70.92
58239;BME280;44037;55.638;37.356;2024-03-06T04:18:44;100182.59;;;-9.27;71.37
58239;BME280;44037;55.638;37.356;2024-03-06T04:21:13;100181.63;;;-9.22;71.33
58239;BME280;44037;55.638;37.356;2024-03-06T04:23:41;100191.19;;;-9.23;71.09
58239;BME280;44037;55.638;37.356;2024-03-06T04:26:08;100184.38;;;-9.29;71.38
58239;BME280;44037;55.638;37.356;2024-03-06T04:28:36;100179.84;;;-9.20;71.30
58239;BME280;44037;55.638;37.356;2024-03-06T04:31:04;100187.38;;;-9.11;70.92
58239;BME280;44037;55.638;37.356;2024-03-06T04:33:32;100178.31;;;-8.96;70.87
58239;BME280;44037;55.638;37.356;2024-03-06T04:36:01;100176.00;;;-8.77;70.63
58239;BME280;44037;55.638;37.356;2024-03-06T04:38:30;100170.72;;;-8.74;70.37
58239;BME280;44037;55.638;37.356;2024-03-06T04:40:57;100182.81;;;-8.71;69.91
58239;BME280;44037;55.638;37.356;2024-03-06T04:43:25;100172.94;;;-8.60;69.63
58239;BME280;44037;55.638;37.356;2024-03-06T04:45:52;100182.41;;;-8.57;69.32
58239;BME280;44037;55.638;37.356;2024-03-06T04:48:19;100178.25;;;-8.65;69.38
58239;BME280;44037;55.638;37.356;2024-03-06T04:50:47;100182.16;;;-8.80;69.34
58239;BME280;44037;55.638;37.356;2024-03-06T04:53:14;100189.34;;;-8.88;69.29
58239;BME280;44037;55.638;37.356;2024-03-06T04:55:43;100185.19;;;-8.95;69.59
58239;BME280;44037;55.638;37.356;2024-03-06T04:58:10;100183.53;;;-8.98;69.69
58239;BME280;44037;55.638;37.356;2024-03-06T05:00:38;100179.16;;;-8.96;69.69
58239;BME280;44037;55.638;37.356;2024-03-06T05:03:05;100185.91;;;-8.90;69.43
58239;BME280;44037;55.638;37.356;2024-03-06T05:05:32;100172.88;;;-8.88;69.17
58239;BME280;44037;55.638;37.356;2024-03-06T05:08:00;100175.38;;;-8.85;68.87
58239;BME280;44037;55.638;37.356;2024-03-06T05:10:27;100175.94;;;-8.74;68.90
58239;BME280;44037;55.638;37.356;2024-03-06T05:12:56;100174.84;;;-8.67;68.33
58239;BME280;44037;55.638;37.356;2024-03-06T05:15:23;100167.75;;;-8.62;67.81
58239;BME280;44037;55.638;37.356;2024-03-06T05:17:50;100174.16;;;-8.73;67.53
58239;BME280;44037;55.638;37.356;2024-03-06T05:20:17;100182.94;;;-8.76;67.79
58239;BME280;44037;55.638;37.356;2024-03-06T05:22:46;100178.59;;;-8.75;67.79
58239;BME280;44037;55.638;37.356;2024-03-06T05:25:13;100182.34;;;-8.86;67.76
58239;BME280;44037;55.638;37.356;2024-03-06T05:27:40;100188.31;;;-8.82;68.13
58239;BME280;44037;55.638;37.356;2024-03-06T05:30:09;100188.31;;;-8.82;68.01
58239;BME280;44037;55.638;37.356;2024-03-06T05:32:37;100179.88;;;-8.61;67.53
58239;BME280;44037;55.638;37.356;2024-03-06T05:35:05;100187.31;;;-8.48;67.32
58239;BME280;44037;55.638;37.356;2024-03-06T05:37:35;100185.66;;;-8.51;66.97
58239;BME280;44037;55.638;37.356;2024-03-06T05:40:03;100186.09;;;-8.36;66.68
58239;BME280;44037;55.638;37.356;2024-03-06T05:42:31;100186.56;;;-8.23;66.45
58239;BME280;44037;55.638;37.356;2024-03-06T05:44:59;100189.22;;;-8.25;66.19
58239;BME280;44037;55.638;37.356;2024-03-06T05:47:33;100191.59;;;-8.17;66.08
58239;BME280;44037;55.638;37.356;2024-03-06T05:50:00;100191.84;;;-7.98;65.81
58239;BME280;44037;55.638;37.356;2024-03-06T05:52:30;100188.16;;;-7.91;65.31
58239;BME280;44037;55.638;37.356;2024-03-06T05:54:57;100198.53;;;-7.89;64.79
58239;BME280;44037;55.638;37.356;2024-03-06T05:57:25;100199.53;;;-7.93;64.66
58239;BME280;44037;55.638;37.356;2024-03-06T05:59:52;100197.69;;;-7.90;64.71
58239;BME280;44037;55.638;37.356;2024-03-06T06:02:20;100201.00;;;-7.85;64.44
58239;BME280;44037;55.638;37.356;2024-03-06T06:04:49;100197.13;;;-8.00;63.92
58239;BME280;44037;55.638;37.356;2024-03-06T06:07:17;100198.13;;;-7.77;63.79
58239;BME280;44037;55.638;37.356;2024-03-06T06:09:45;100199.22;;;-7.84;63.33
58239;BME280;44037;55.638;37.356;2024-03-06T06:12:12;100198.63;;;-7.66;63.04
58239;BME280;44037;55.638;37.356;2024-03-06T06:14:39;100203.53;;;-7.56;63.12
58239;BME280;44037;55.638;37.356;2024-03-06T06:17:07;100197.78;;;-7.41;63.06
58239;BME280;44037;55.638;37.356;2024-03-06T06:19:34;100188.94;;;-7.37;62.28
58239;BME280;44037;55.638;37.356;2024-03-06T06:22:03;100197.13;;;-7.22;61.85
58239;BME280;44037;55.638;37.356;2024-03-06T06:24:30;100193.06;;;-7.06;61.71
58239;BME280;44037;55.638;37.356;2024-03-06T06:26:57;100200.91;;;-6.82;61.34
58239;BME280;44037;55.638;37.356;2024-03-06T06:29:25;100207.28;;;-6.66;60.45
58239;BME280;44037;55.638;37.356;2024-03-06T06:31:52;100200.91;;;-6.35;59.87
58239;BME280;44037;55.638;37.356;2024-03-06T06:34:19;100200.31;;;-6.19;59.34
58239;BME280;44037;55.638;37.356;2024-03-06T06:36:47;100202.47;;;-6.08;58.73
58239;BME280;44037;55.638;37.356;2024-03-06T06:39:15;100207.97;;;-5.92;58.06
58239;BME280;44037;55.638;37.356;2024-03-06T06:41:43;100200.34;;;-5.76;57.23
58239;BME280;44037;55.638;37.356;2024-03-06T06:44:10;100201.34;;;-5.58;56.88
58239;BME280;44037;55.638;37.356;2024-03-06T06:46:39;100205.88;;;-5.41;56.43
58239;BME280;44037;55.638;37.356;2024-03-06T06:49:06;100213.47;;;-5.35;55.85
58239;BME280;44037;55.638;37.356;2024-03-06T06:51:33;100202.91;;;-5.54;56.01
58239;BME280;44037;55.638;37.356;2024-03-06T06:54:01;100208.81;;;-5.49;55.83
58239;BME280;44037;55.638;37.356;2024-03-06T06:56:32;100207.38;;;-5.56;55.47
58239;BME280;44037;55.638;37.356;2024-03-06T06:58:59;100217.13;;;-5.39;55.41
58239;BME280;44037;55.638;37.356;2024-03-06T07:01:27;100212.38;;;-5.29;54.65
58239;BME280;44037;55.638;37.356;2024-03-06T07:03:54;100213.22;;;-5.29;54.07
58239;BME280;44037;55.638;37.356;2024-03-06T07:06:21;100217.97;;;-5.18;53.88
58239;BME280;44037;55.638;37.356;2024-03-06T07:08:50;100213.91;;;-4.84;54.06
58239;BME280;44037;55.638;37.356;2024-03-06T07:11:17;100215.75;;;-4.67;53.18
58239;BME280;44037;55.638;37.356;2024-03-06T07:13:46;100223.81;;;-4.72;51.56
58239;BME280;44037;55.638;37.356;2024-03-06T07:16:14;100216.97;;;-4.95;51.27
58239;BME280;44037;55.638;37.356;2024-03-06T07:18:41;100222.75;;;-4.68;51.58
58239;BME280;44037;55.638;37.356;2024-03-06T07:21:27;100212.94;;;-4.43;51.22
58239;BME280;44037;55.638;37.356;2024-03-06T07:23:55;100227.97;;;-4.28;51.25
58239;BME280;44037;55.638;37.356;2024-03-06T07:26:23;100221.31;;;-4.35;50.74
58239;BME280;44037;55.638;37.356;2024-03-06T07:28:53;100222.78;;;-4.29;50.33
58239;BME280;44037;55.638;37.356;2024-03-06T07:31:20;100218.28;;;-4.08;49.71
58239;BME280;44037;55.638;37.356;2024-03-06T07:34:02;100216.03;;;-3.97;48.87
58239;BME280;44037;55.638;37.356;2024-03-06T07:36:30;100207.59;;;-4.04;49.79
58239;BME280;44037;55.638;37.356;2024-03-06T07:38:57;100220.91;;;-4.08;48.69
58239;BME280;44037;55.638;37.356;2024-03-06T07:41:25;100221.34;;;-3.99;48.57
58239;BME280;44037;55.638;37.356;2024-03-06T07:43:53;100218.53;;;-4.13;48.44
58239;BME280;44037;55.638;37.356;2024-03-06T07:46:21;100212.78;;;-3.66;48.02
58239;BME280;44037;55.638;37.356;2024-03-06T07:48:48;100221.03;;;-3.73;46.55
58239;BME280;44037;55.638;37.356;2024-03-06T07:51:17;100228.72;;;-3.70;46.75
58239;BME280;44037;55.638;37.356;2024-03-06T07:53:45;100233.25;;;-3.91;46.59
58239;BME280;44037;55.638;37.356;2024-03-06T07:56:12;100231.38;;;-4.07;46.39
58239;BME280;44037;55.638;37.356;2024-03-06T07:58:40;100228.59;;;-4.04;46.91
58239;BME280;44037;55.638;37.356;2024-03-06T08:01:08;100228.38;;;-4.37;47.30
58239;BME280;44037;55.638;37.356;2024-03-06T08:03:38;100231.56;;;-4.31;46.53
58239;BME280;44037;55.638;37.356;2024-03-06T08:06:06;100231.50;;;-4.10;46.75
58239;BME280;44037;55.638;37.356;2024-03-06T08:08:34;100235.97;;;-4.12;45.83
58239;BME280;44037;55.638;37.356;2024-03-06T08:11:03;100237.41;;;-4.43;47.04
58239;BME280;44037;55.638;37.356;2024-03-06T08:13:31;100222.41;;;-4.03;46.87
58239;BME280;44037;55.638;37.356;2024-03-06T08:15:58;100227.56;;;-4.38;46.38
58239;BME280;44037;55.638;37.356;2024-03-06T08:18:27;100229.00;;;-4.51;46.86
58239;BME280;44037;55.638;37.356;2024-03-06T08:20:54;100231.63;;;-3.94;47.06
58239;BME280;44037;55.638;37.356;2024-03-06T08:23:21;100234.53;;;-3.63;46.07
58239;BME280;44037;55.638;37.356;2024-03-06T08:25:49;100226.31;;;-3.92;45.50
58239;BME280;44037;55.638;37.356;2024-03-06T08:28:16;100234.66;;;-3.47;45.62
58239;BME280;44037;55.638;37.356;2024-03-06T08:30:44;100219.19;;;-3.54;45.69
58239;BME280;44037;55.638;37.356;2024-03-06T08:33:11;100231.16;;;-3.66;45.49
58239;BME280;44037;55.638;37.356;2024-03-06T08:35:40;100235.47;;;-3.47;45.83
58239;BME280;44037;55.638;37.356;2024-03-06T08:38:08;100232.41;;;-3.55;45.84
58239;BME280;44037;55.638;37.356;2024-03-06T08:40:35;100236.28;;;-4.01;46.23
58239;BME280;44037;55.638;37.356;2024-03-06T08:43:04;100236.16;;;-3.97;46.44
58239;BME280;44037;55.638;37.356;2024-03-06T08:45:31;100230.81;;;-3.77;46.57
58239;BME280;44037;55.638;37.356;2024-03-06T08:47:59;100231.00;;;-3.62;46.27
58239;BME280;44037;55.638;37.356;2024-03-06T08:50:26;100226.31;;;-3.75;45.69
58239;BME280;44037;55.638;37.356;2024-03-06T08:52:55;100227.81;;;-3.17;45.45
58239;BME280;44037;55.638;37.356;2024-03-06T08:55:22;100225.28;;;-3.18;44.64
58239;BME280;44037;55.638;37.356;2024-03-06T08:57:50;100226.84;;;-3.32;44.78
58239;BME280;44037;55.638;37.356;2024-03-06T09:00:19;100216.56;;;-3.54;44.90
58239;BME280;44037;55.638;37.356;2024-03-06T09:02:46;100224.50;;;-3.38;44.20
58239;BME280;44037;55.638;37.356;2024-03-06T09:05:14;100226.56;;;-3.79;43.37
58239;BME280;44037;55.638;37.356;2024-03-06T09:07:41;100223.63;;;-4.10;43.37
58239;BME280;44037;55.638;37.356;2024-03-06T09:10:10;100221.41;;;-3.81;44.05
58239;BME280;44037;55.638;37.356;2024-03-06T09:12:38;100225.22;;;-3.88;43.91
58239;BME280;44037;55.638;37.356;2024-03-06T09:15:06;100213.38;;;-3.43;43.48
58239;BME280;44037;55.638;37.356;2024-03-06T09:17:35;100222.16;;;-2.91;43.14
58239;BME280;44037;55.638;37.356;2024-03-06T09:20:03;100217.47;;;-3.02;42.92
58239;BME280;44037;55.638;37.356;2024-03-06T09:22:36;100209.00;;;-2.42;43.12
58239;BME280;44037;55.638;37.356;2024-03-06T09:25:05;100217.78;;;-2.09;41.31
58239;BME280;44037;55.638;37.356;2024-03-06T09:27:34;100205.00;;;-1.85;40.56
58239;BME280;44037;55.638;37.356;2024-03-06T09:30:01;100204.03;;;-1.52;40.23
58239;BME280;44037;55.638;37.356;2024-03-06T09:32:32;100208.97;;;-1.31;40.38
58239;BME280;44037;55.638;37.356;2024-03-06T09:34:59;100195.38;;;-0.80;40.58
58239;BME280;44037;55.638;37.356;2024-03-06T09:37:27;100206.47;;;-0.32;40.12
58239;BME280;44037;55.638;37.356;2024-03-06T09:39:54;100195.75;;;-0.02;39.13
58239;BME280;44037;55.638;37.356;2024-03-06T09:42:22;100201.84;;;-0.28;37.38
58239;BME280;44037;55.638;37.356;2024-03-06T09:44:51;100197.63;;;-0.89;37.54
58239;BME280;44037;55.638;37.356;2024-03-06T09:47:21;100187.84;;;-0.72;38.29
58239;BME280;44037;55.638;37.356;2024-03-06T09:49:51;100190.00;;;-0.93;37.19
58239;BME280;44037;55.638;37.356;2024-03-06T09:52:19;100188.75;;;-1.61;38.54
58239;BME280;44037;55.638;37.356;2024-03-06T09:54:48;100184.13;;;-1.88;39.87
58239;BME280;44037;55.638;37.356;2024-03-06T09:57:17;100187.66;;;-1.43;40.07
58239;BME280;44037;55.638;37.356;2024-03-06T09:59:44;100186.16;;;-1.02;38.87
58239;BME280;44037;55.638;37.356;2024-03-06T10:02:19;100191.69;;;-0.92;37.63
58239;BME280;44037;55.638;37.356;2024-03-06T10:04:55;100187.38;;;-0.79;37.96
58239;BME280;44037;55.638;37.356;2024-03-06T10:07:23;100190.75;;;-0.48;37.72
58239;BME280;44037;55.638;37.356;2024-03-06T10:09:52;100181.34;;;-0.95;37.87
58239;BME280;44037;55.638;37.356;2024-03-06T10:12:21;100178.91;;;-0.70;37.96
58239;BME280;44037;55.638;37.356;2024-03-06T10:14:51;100181.72;;;-0.73;37.04
58239;BME280;44037;55.638;37.356;2024-03-06T10:17:21;100183.94;;;-1.24;37.50
58239;BME280;44037;55.638;37.356;2024-03-06T10:19:49;100175.38;;;-1.28;37.76
58239;BME280;44037;55.638;37.356;2024-03-06T10:22:20;100176.75;;;-1.51;38.37
58239;BME280;44037;55.638;37.356;2024-03-06T10:24:50;100171.94;;;-1.44;38.01
58239;BME280;44037;55.638;37.356;2024-03-06T10:27:22;100173.25;;;-1.52;38.75
58239;BME280;44037;55.638;37.356;2024-03-06T10:30:01;100169.97;;;-1.55;38.27
58239;BME280;44037;55.638;37.356;2024-03-06T10:32:32;100170.88;;;-1.87;38.33
58239;BME280;44037;55.638;37.356;2024-03-06T10:35:00;100170.72;;;-1.39;38.42
58239;BME280;44037;55.638;37.356;2024-03-06T10:37:29;100174.75;;;-1.47;37.79
58239;BME280;44037;55.638;37.356;2024-03-06T10:39:58;100170.91;;;-1.56;37.53
58239;BME280;44037;55.638;37.356;2024-03-06T10:42:33;100170.84;;;-1.71;37.83
58239;BME280;44037;55.638;37.356;2024-03-06T10:45:04;100168.16;;;-1.55;38.28
58239;BME280;44037;55.638;37.356;2024-03-06T10:47:33;100169.47;;;-1.17;38.28
58239;BME280;44037;55.638;37.356;2024-03-06T10:50:04;100164.09;;;-0.58;38.26
58239;BME280;44037;55.638;37.356;2024-03-06T10:52:38;100162.50;;;-0.75;36.71
58239;BME280;44037;55.638;37.356;2024-03-06T10:55:08;100160.16;;;-1.23;37.32
58239;BME280;44037;55.638;37.356;2024-03-06T10:57:36;100162.19;;;-1.28;37.60
58239;BME280;44037;55.638;37.356;2024-03-06T11:00:04;100156.16;;;-1.30;38.06
58239;BME280;44037;55.638;37.356;2024-03-06T11:02:34;100160.50;;;-1.14;37.03
58239;BME280;44037;55.638;37.356;2024-03-06T11:05:03;100156.84;;;-0.97;36.67
58239;BME280;44037;55.638;37.356;2024-03-06T11:07:31;100158.19;;;-0.90;36.89
58239;BME280;44037;55.638;37.356;2024-03-06T11:09:59;100158.09;;;-1.03;36.46
58239;BME280;44037;55.638;37.356;2024-03-06T11:12:33;100153.78;;;-1.49;37.14
58239;BME280;44037;55.638;37.356;2024-03-06T11:15:09;100147.31;;;-1.74;37.93
58239;BME280;44037;55.638;37.356;2024-03-06T11:17:38;100144.16;;;-2.11;37.98
58239;BME280;44037;55.638;37.356;2024-03-06T11:20:13;100150.28;;;-2.26;38.46
58239;BME280;44037;55.638;37.356;2024-03-06T11:23:03;100147.25;;;-2.35;38.24
58239;BME280;44037;55.638;37.356;2024-03-06T11:25:56;100137.38;;;-2.47;38.84
58239;BME280;44037;55.638;37.356;2024-03-06T11:28:26;100140.59;;;-2.10;38.31
58239;BME280;44037;55.638;37.356;2024-03-06T11:30:58;100136.16;;;-1.93;37.86
58239;BME280;44037;55.638;37.356;2024-03-06T11:33:34;100128.00;;;-1.44;37.80
58239;BME280;44037;55.638;37.356;2024-03-06T11:36:17;100129.19;;;-1.05;37.32
58239;BME280;44037;55.638;37.356;2024-03-06T11:38:51;100131.63;;;-1.16;36.75
58239;BME280;44037;55.638;37.356;2024-03-06T11:41:21;100128.06;;;-1.15;36.70
58239;BME280;44037;55.638;37.356;2024-03-06T11:43:49;100121.66;;;-1.25;37.25
58239;BME280;44037;55.638;37.356;2024-03-06T11:46:20;100127.47;;;-1.20;36.82
58239;BME280;44037;55.638;37.356;2024-03-06T11:48:57;100120.31;;;-1.04;36.97
58239;BME280;44037;55.638;37.356;2024-03-06T11:51:25;100117.09;;;-1.09;36.15
58239;BME280;44037;55.638;37.356;2024-03-06T11:53:52;100117.88;;;-0.92;36.23
58239;BME280;44037;55.638;37.356;2024-03-06T11:56:21;100126.72;;;-1.22;35.23
58239;BME280;44037;55.638;37.356;2024-03-06T11:58:48;100112.84;;;-1.55;35.35
58239;BME280;44037;55.638;37.356;2024-03-06T12:01:16;100112.84;;;-1.85;35.62
58239;BME280;44037;55.638;37.356;2024-03-06T12:03:44;100106.97;;;-2.05;35.66
58239;BME280;44037;55.638;37.356;2024-03-06T12:06:13;100110.97;;;-2.13;36.30
58239;BME280;44037;55.638;37.356;2024-03-06T12:08:40;100108.66;;;-2.04;35.23
58239;BME280;44037;55.638;37.356;2024-03-06T12:11:08;100106.84;;;-1.87;35.43
58239;BME280;44037;55.638;37.356;2024-03-06T12:13:35;100095.91;;;-1.65;36.16
58239;BME280;44037;55.638;37.356;2024-03-06T12:16:06;100095.25;;;-1.54;35.51
58239;BME280;44037;55.638;37.356;2024-03-06T12:18:34;100086.81;;;-1.30;35.72
58239;BME280;44037;55.638;37.356;2024-03-06T12:21:02;100088.31;;;-1.12;34.94
58239;BME280;44037;55.638;37.356;2024-03-06T12:23:32;100085.38;;;-1.22;34.23
58239;BME280;44037;55.638;37.356;2024-03-06T12:26:06;100095.75;;;-1.33;34.94
58239;BME280;44037;55.638;37.356;2024-03-06T12:28:35;100095.25;;;-1.54;35.10
58239;BME280;44037;55.638;37.356;2024-03-06T12:31:03;100083.94;;;-1.71;35.68
58239;BME280;44037;55.638;37.356;2024-03-06T12:33:31;100086.31;;;-1.37;36.32
58239;BME280;44037;55.638;37.356;2024-03-06T12:36:02;100083.03;;;-0.97;35.70
58239;BME280;44037;55.638;37.356;2024-03-06T12:38:29;100087.16;;;-0.93;35.65
58239;BME280;44037;55.638;37.356;2024-03-06T12:40:59;100079.25;;;-1.08;35.74
58239;BME280;44037;55.638;37.356;2024-03-06T12:43:26;100079.06;;;-1.48;33.71
58239;BME280;44037;55.638;37.356;2024-03-06T12:45:55;100081.66;;;-1.91;34.53
58239;BME280;44037;55.638;37.356;2024-03-06T12:48:23;100084.63;;;-1.97;34.94